WMT1317 LIMF-LUKK
Flight info
| Callsign | WMT1317 |
|---|---|
| Flight time | 2h 4m |
| Altitude | 37000 |
| Route | MMP Z982 SRN DCT DESIP DCT LEGLO DCT OSKOR DCT ELTAR DCT SOVOX DCT KOPRY DCT BUDOP DCT BUSES |
| Aircraft | A321/M-VGDW/C |
Departure
| Time | 2026-05-09 06:08 |
|---|---|
| Airport | Turin Airport (LIMF) |
Arrival
| Time | 2026-05-09 08:12 |
|---|---|
| Airport | Chişinău International Airport (LUKK) |
| Time | Latitude | Longitude | Altitude | Speed | Heading |
|---|---|---|---|---|---|
| 2026-05-09 05:41 | 45.19220 | 7.64536 | 1004 ft | 0 kts | 257° |
| 2026-05-09 06:00 | 45.19220 | 7.64540 | 1004 ft | 2 kts | 257° |
| 2026-05-09 06:00 | 45.19225 | 7.64566 | 1004 ft | 3 kts | 257° |
| 2026-05-09 06:00 | 45.19229 | 7.64593 | 1004 ft | 3 kts | 257° |
| 2026-05-09 06:01 | 45.19234 | 7.64620 | 1004 ft | 2 kts | 257° |
| 2026-05-09 06:01 | 45.19239 | 7.64645 | 1004 ft | 3 kts | 236° |
| 2026-05-09 06:01 | 45.19251 | 7.64663 | 1004 ft | 3 kts | 199° |
| 2026-05-09 06:01 | 45.19270 | 7.64668 | 1004 ft | 2 kts | 182° |
| 2026-05-09 06:02 | 45.19271 | 7.64668 | 1003 ft | 0 kts | 182° |
| 2026-05-09 06:04 | 45.19267 | 7.64668 | 1003 ft | 2 kts | 182° |
| 2026-05-09 06:04 | 45.19244 | 7.64667 | 1003 ft | 5 kts | 183° |
| 2026-05-09 06:04 | 45.19201 | 7.64663 | 1003 ft | 8 kts | 183° |
| 2026-05-09 06:05 | 45.19137 | 7.64659 | 1003 ft | 10 kts | 182° |
| 2026-05-09 06:05 | 45.19055 | 7.64654 | 1003 ft | 13 kts | 182° |
| 2026-05-09 06:05 | 45.18955 | 7.64647 | 1003 ft | 16 kts | 182° |
| 2026-05-09 06:05 | 45.18838 | 7.64639 | 1003 ft | 18 kts | 182° |
| 2026-05-09 06:06 | 45.18715 | 7.64632 | 1003 ft | 17 kts | 182° |
| 2026-05-09 06:06 | 45.18619 | 7.64699 | 1003 ft | 15 kts | 106° |
| 2026-05-09 06:06 | 45.18617 | 7.64835 | 1003 ft | 15 kts | 64° |
| 2026-05-09 06:06 | 45.18661 | 7.64872 | 1003 ft | 0 kts | 4° |
| 2026-05-09 06:07 | 45.18677 | 7.64873 | 1003 ft | 12 kts | 3° |
| 2026-05-09 06:07 | 45.19011 | 7.64894 | 1004 ft | 82 kts | 2° |
| 2026-05-09 06:07 | 45.19793 | 7.64943 | 1004 ft | 141 kts | 3° |
| 2026-05-09 06:07 | 45.20881 | 7.65020 | 1252 ft | 159 kts | 3° |
| 2026-05-09 06:08 | 45.21987 | 7.65095 | 1806 ft | 160 kts | 2° |
| 2026-05-09 06:08 | 45.23111 | 7.65163 | 2347 ft | 164 kts | 3° |
| 2026-05-09 06:08 | 45.24270 | 7.65242 | 2842 ft | 170 kts | 2° |
| 2026-05-09 06:08 | 45.25497 | 7.65319 | 3181 ft | 183 kts | 3° |
| 2026-05-09 06:09 | 45.26787 | 7.65786 | 3441 ft | 203 kts | 27° |
| 2026-05-09 06:09 | 45.27783 | 7.67278 | 3702 ft | 221 kts | 64° |
| 2026-05-09 06:09 | 45.28000 | 7.69538 | 3841 ft | 247 kts | 101° |
| 2026-05-09 06:09 | 45.27335 | 7.71861 | 4245 ft | 262 kts | 118° |
| 2026-05-09 06:10 | 45.26514 | 7.74207 | 4866 ft | 268 kts | 113° |
| 2026-05-09 06:10 | 45.25851 | 7.76695 | 5580 ft | 271 kts | 110° |
| 2026-05-09 06:10 | 45.25229 | 7.79227 | 6290 ft | 273 kts | 110° |
| 2026-05-09 06:10 | 45.24367 | 7.81643 | 6975 ft | 276 kts | 123° |
| 2026-05-09 06:11 | 45.23256 | 7.83875 | 7654 ft | 279 kts | 127° |
| 2026-05-09 06:11 | 45.22077 | 7.86076 | 8327 ft | 281 kts | 128° |
| 2026-05-09 06:11 | 45.20905 | 7.88317 | 8988 ft | 285 kts | 126° |
| 2026-05-09 06:11 | 45.19753 | 7.90622 | 9650 ft | 288 kts | 124° |
| 2026-05-09 06:12 | 45.18912 | 7.93209 | 10266 ft | 292 kts | 104° |
| 2026-05-09 06:12 | 45.18854 | 7.96127 | 10628 ft | 306 kts | 78° |
| 2026-05-09 06:12 | 45.19630 | 7.99019 | 10852 ft | 324 kts | 62° |
| 2026-05-09 06:12 | 45.20939 | 8.01711 | 11088 ft | 340 kts | 52° |
| 2026-05-09 06:13 | 45.22487 | 8.04325 | 11443 ft | 350 kts | 49° |
| 2026-05-09 06:13 | 45.24120 | 8.06908 | 12024 ft | 354 kts | 48° |
| 2026-05-09 06:13 | 45.25771 | 8.09509 | 12607 ft | 356 kts | 48° |
| 2026-05-09 06:13 | 45.27397 | 8.12134 | 13161 ft | 360 kts | 49° |
| 2026-05-09 06:14 | 45.29034 | 8.14845 | 13702 ft | 363 kts | 50° |
| 2026-05-09 06:14 | 45.30695 | 8.17628 | 14237 ft | 367 kts | 50° |
| 2026-05-09 06:14 | 45.32333 | 8.20370 | 14754 ft | 370 kts | 49° |
| 2026-05-09 06:14 | 45.34012 | 8.23165 | 15267 ft | 373 kts | 49° |
| 2026-05-09 06:15 | 45.35711 | 8.25978 | 15772 ft | 377 kts | 49° |
| 2026-05-09 06:15 | 45.37425 | 8.28821 | 16264 ft | 380 kts | 49° |
| 2026-05-09 06:15 | 45.39151 | 8.31691 | 16746 ft | 383 kts | 49° |
| 2026-05-09 06:15 | 45.40890 | 8.34586 | 17220 ft | 386 kts | 49° |
| 2026-05-09 06:16 | 45.42643 | 8.37509 | 17677 ft | 390 kts | 49° |
| 2026-05-09 06:16 | 45.44408 | 8.40456 | 18130 ft | 393 kts | 49° |
| 2026-05-09 06:16 | 45.45584 | 8.42421 | 18428 ft | 395 kts | 49° |
| 2026-05-09 06:16 | 45.47978 | 8.46426 | 18996 ft | 399 kts | 49° |
| 2026-05-09 06:17 | 45.49177 | 8.48429 | 19274 ft | 401 kts | 49° |
| 2026-05-09 06:17 | 45.50994 | 8.51472 | 19681 ft | 405 kts | 49° |
| 2026-05-09 06:17 | 45.52824 | 8.54542 | 20083 ft | 408 kts | 49° |
| 2026-05-09 06:17 | 45.54667 | 8.57636 | 20474 ft | 411 kts | 49° |
| 2026-05-09 06:18 | 45.56521 | 8.60752 | 20860 ft | 414 kts | 49° |
| 2026-05-09 06:18 | 45.58391 | 8.63900 | 21242 ft | 417 kts | 49° |
| 2026-05-09 06:18 | 45.60275 | 8.67076 | 21610 ft | 420 kts | 49° |
| 2026-05-09 06:18 | 45.62125 | 8.70324 | 21959 ft | 424 kts | 53° |
| 2026-05-09 06:19 | 45.63561 | 8.74019 | 22287 ft | 428 kts | 68° |
| 2026-05-09 06:19 | 45.64283 | 8.78152 | 22615 ft | 431 kts | 84° |
| 2026-05-09 06:19 | 45.64403 | 8.82440 | 22979 ft | 433 kts | 90° |
| 2026-05-09 06:19 | 45.64389 | 8.86754 | 23282 ft | 436 kts | 91° |
| 2026-05-09 06:20 | 45.64368 | 8.91111 | 23601 ft | 439 kts | 90° |
| 2026-05-09 06:20 | 45.64398 | 8.95485 | 23918 ft | 442 kts | 89° |
| 2026-05-09 06:20 | 45.64489 | 8.99893 | 24230 ft | 445 kts | 88° |
| 2026-05-09 06:20 | 45.64567 | 9.04329 | 24553 ft | 447 kts | 90° |
| 2026-05-09 06:21 | 45.64593 | 9.08783 | 24851 ft | 450 kts | 90° |
| 2026-05-09 06:21 | 45.64592 | 9.13260 | 25155 ft | 452 kts | 90° |
| 2026-05-09 06:21 | 45.64589 | 9.17759 | 25449 ft | 454 kts | 90° |
| 2026-05-09 06:21 | 45.64621 | 9.22284 | 25744 ft | 456 kts | 89° |
| 2026-05-09 06:22 | 45.64682 | 9.26769 | 26024 ft | 458 kts | 89° |
| 2026-05-09 06:22 | 45.64749 | 9.31388 | 26299 ft | 461 kts | 89° |
| 2026-05-09 06:22 | 45.64794 | 9.35983 | 26573 ft | 463 kts | 89° |
| 2026-05-09 06:22 | 45.64818 | 9.40531 | 26827 ft | 465 kts | 90° |
| 2026-05-09 06:23 | 45.64834 | 9.45156 | 27081 ft | 467 kts | 90° |
| 2026-05-09 06:23 | 45.64853 | 9.49809 | 27327 ft | 469 kts | 89° |
| 2026-05-09 06:23 | 45.64883 | 9.54486 | 27575 ft | 472 kts | 89° |
| 2026-05-09 06:23 | 45.64922 | 9.59181 | 27809 ft | 474 kts | 89° |
| 2026-05-09 06:24 | 45.64954 | 9.63904 | 28042 ft | 476 kts | 89° |
| 2026-05-09 06:24 | 45.64977 | 9.68639 | 28269 ft | 478 kts | 89° |
| 2026-05-09 06:24 | 45.64992 | 9.73399 | 28486 ft | 480 kts | 89° |
| 2026-05-09 06:24 | 45.65007 | 9.78172 | 28706 ft | 482 kts | 89° |
| 2026-05-09 06:25 | 45.65018 | 9.82980 | 28937 ft | 484 kts | 89° |
| 2026-05-09 06:25 | 45.65008 | 9.87803 | 29150 ft | 486 kts | 90° |
| 2026-05-09 06:25 | 45.64979 | 9.92639 | 29340 ft | 488 kts | 90° |
| 2026-05-09 06:25 | 45.64948 | 9.97504 | 29542 ft | 490 kts | 90° |
| 2026-05-09 06:26 | 45.64927 | 10.02385 | 29734 ft | 492 kts | 89° |
| 2026-05-09 06:26 | 45.64915 | 10.07285 | 29933 ft | 494 kts | 89° |
| 2026-05-09 06:26 | 45.64898 | 10.12200 | 30116 ft | 496 kts | 89° |
| 2026-05-09 06:26 | 45.64875 | 10.17129 | 30307 ft | 497 kts | 89° |
| 2026-05-09 06:27 | 45.64862 | 10.22075 | 30515 ft | 498 kts | 89° |
| 2026-05-09 06:27 | 45.64860 | 10.27021 | 30774 ft | 497 kts | 89° |
| 2026-05-09 06:27 | 45.64858 | 10.31956 | 31009 ft | 497 kts | 89° |
| 2026-05-09 06:27 | 45.64847 | 10.36902 | 31212 ft | 497 kts | 89° |
| 2026-05-09 06:28 | 45.64831 | 10.41836 | 31455 ft | 497 kts | 90° |
| 2026-05-09 06:28 | 45.64811 | 10.46777 | 31655 ft | 497 kts | 90° |
| 2026-05-09 06:28 | 45.64785 | 10.51717 | 31883 ft | 497 kts | 90° |
| 2026-05-09 06:28 | 45.64755 | 10.56652 | 32117 ft | 496 kts | 90° |
| 2026-05-09 06:29 | 45.64750 | 10.61513 | 32340 ft | 496 kts | 87° |
| 2026-05-09 06:29 | 45.65117 | 10.66410 | 32519 ft | 495 kts | 80° |
| 2026-05-09 06:29 | 45.65689 | 10.71323 | 32740 ft | 494 kts | 78° |
| 2026-05-09 06:29 | 45.66301 | 10.76090 | 32918 ft | 495 kts | 78° |
| 2026-05-09 06:30 | 45.66933 | 10.80927 | 33123 ft | 494 kts | 78° |
| 2026-05-09 06:30 | 45.67539 | 10.85760 | 33325 ft | 494 kts | 78° |
| 2026-05-09 06:30 | 45.68111 | 10.90612 | 33487 ft | 495 kts | 79° |
| 2026-05-09 06:30 | 45.68668 | 10.95470 | 33660 ft | 495 kts | 79° |
| 2026-05-09 06:31 | 45.69227 | 11.00327 | 33839 ft | 495 kts | 79° |
| 2026-05-09 06:31 | 45.69794 | 11.05187 | 33983 ft | 496 kts | 78° |
| 2026-05-09 06:31 | 45.70371 | 11.10048 | 34149 ft | 496 kts | 78° |
| 2026-05-09 06:31 | 45.70948 | 11.14909 | 34321 ft | 496 kts | 78° |
| 2026-05-09 06:32 | 45.71523 | 11.19775 | 34478 ft | 496 kts | 79° |
| 2026-05-09 06:32 | 45.72089 | 11.24639 | 34627 ft | 496 kts | 79° |
| 2026-05-09 06:32 | 45.72649 | 11.29512 | 34762 ft | 496 kts | 79° |
| 2026-05-09 06:33 | 45.73759 | 11.39258 | 35060 ft | 496 kts | 79° |
| 2026-05-09 06:33 | 45.74314 | 11.44140 | 35193 ft | 496 kts | 79° |
| 2026-05-09 06:33 | 45.74872 | 11.49010 | 35349 ft | 496 kts | 79° |
| 2026-05-09 06:34 | 45.75984 | 11.58764 | 35582 ft | 497 kts | 79° |
| 2026-05-09 06:34 | 45.76532 | 11.63647 | 35715 ft | 497 kts | 79° |
| 2026-05-09 06:34 | 45.77078 | 11.68531 | 35838 ft | 496 kts | 79° |
| 2026-05-09 06:34 | 45.77623 | 11.73416 | 35953 ft | 496 kts | 79° |
| 2026-05-09 06:35 | 45.78165 | 11.78297 | 36060 ft | 497 kts | 79° |
| 2026-05-09 06:35 | 45.78706 | 11.83177 | 36173 ft | 496 kts | 79° |
| 2026-05-09 06:35 | 45.79241 | 11.88070 | 36280 ft | 496 kts | 79° |
| 2026-05-09 06:35 | 45.79774 | 11.92941 | 36419 ft | 495 kts | 79° |
| 2026-05-09 06:36 | 45.80843 | 12.02698 | 36616 ft | 495 kts | 80° |
| 2026-05-09 06:36 | 45.81897 | 12.12452 | 36825 ft | 494 kts | 80° |
| 2026-05-09 06:37 | 45.82942 | 12.22196 | 37020 ft | 493 kts | 80° |
| 2026-05-09 06:37 | 45.83988 | 12.31924 | 37107 ft | 493 kts | 80° |
| 2026-05-09 06:38 | 45.85022 | 12.41655 | 37119 ft | 494 kts | 80° |
| 2026-05-09 06:38 | 45.86028 | 12.51383 | 37125 ft | 493 kts | 81° |
| 2026-05-09 06:39 | 45.87039 | 12.61094 | 37125 ft | 492 kts | 80° |
| 2026-05-09 06:39 | 45.88047 | 12.70804 | 37135 ft | 493 kts | 81° |
| 2026-05-09 06:40 | 45.89035 | 12.80541 | 37141 ft | 492 kts | 81° |
| 2026-05-09 06:40 | 45.90014 | 12.90243 | 37139 ft | 490 kts | 81° |
| 2026-05-09 06:41 | 45.90994 | 12.99918 | 37102 ft | 489 kts | 81° |
| 2026-05-09 06:41 | 45.91957 | 13.09554 | 37060 ft | 487 kts | 81° |
| 2026-05-09 06:42 | 45.92890 | 13.19183 | 37051 ft | 486 kts | 81° |
| 2026-05-09 06:42 | 45.93831 | 13.28772 | 37067 ft | 489 kts | 81° |
| 2026-05-09 06:43 | 45.94775 | 13.38477 | 37128 ft | 491 kts | 81° |
| 2026-05-09 06:43 | 45.95709 | 13.48212 | 37151 ft | 491 kts | 81° |
| 2026-05-09 06:44 | 45.96631 | 13.57909 | 37151 ft | 488 kts | 81° |
| 2026-05-09 06:44 | 45.97551 | 13.67553 | 37125 ft | 486 kts | 81° |
| 2026-05-09 06:45 | 45.98459 | 13.77164 | 37082 ft | 484 kts | 81° |
| 2026-05-09 06:45 | 45.99364 | 13.86746 | 37062 ft | 484 kts | 81° |
| 2026-05-09 06:46 | 46.00265 | 13.96370 | 37066 ft | 487 kts | 81° |
| 2026-05-09 06:46 | 46.01153 | 14.06075 | 37104 ft | 491 kts | 81° |
| 2026-05-09 06:47 | 46.02040 | 14.15837 | 37166 ft | 493 kts | 81° |
| 2026-05-09 06:47 | 46.02914 | 14.25537 | 37175 ft | 491 kts | 81° |
| 2026-05-09 06:48 | 46.03787 | 14.35238 | 37175 ft | 487 kts | 81° |
| 2026-05-09 06:48 | 46.04649 | 14.44866 | 37157 ft | 483 kts | 82° |
| 2026-05-09 06:49 | 46.05486 | 14.54438 | 37110 ft | 481 kts | 82° |
| 2026-05-09 06:49 | 46.06312 | 14.63982 | 37098 ft | 480 kts | 82° |
| 2026-05-09 06:50 | 46.07138 | 14.73530 | 37101 ft | 482 kts | 82° |
| 2026-05-09 06:50 | 46.07956 | 14.83141 | 37116 ft | 486 kts | 82° |
| 2026-05-09 06:51 | 46.08772 | 14.92841 | 37178 ft | 489 kts | 83° |
| 2026-05-09 06:51 | 46.09591 | 15.02556 | 37185 ft | 487 kts | 83° |
| 2026-05-09 06:52 | 46.10388 | 15.12215 | 37182 ft | 484 kts | 83° |
| 2026-05-09 06:52 | 46.11167 | 15.21803 | 37155 ft | 481 kts | 83° |
| 2026-05-09 06:53 | 46.11945 | 15.31344 | 37113 ft | 478 kts | 83° |
| 2026-05-09 06:53 | 46.12713 | 15.40855 | 37102 ft | 477 kts | 83° |
| 2026-05-09 06:54 | 46.13459 | 15.50376 | 37105 ft | 479 kts | 84° |
| 2026-05-09 06:54 | 46.14209 | 15.59957 | 37136 ft | 483 kts | 84° |
| 2026-05-09 06:55 | 46.14960 | 15.69609 | 37188 ft | 485 kts | 84° |
| 2026-05-09 06:55 | 46.15702 | 15.79273 | 37179 ft | 483 kts | 84° |
| 2026-05-09 06:56 | 46.16428 | 15.88866 | 37180 ft | 480 kts | 84° |
| 2026-05-09 06:56 | 46.17149 | 15.98403 | 37140 ft | 477 kts | 84° |
| 2026-05-09 06:57 | 46.17845 | 16.07895 | 37096 ft | 475 kts | 84° |
| 2026-05-09 06:57 | 46.18540 | 16.17368 | 37084 ft | 474 kts | 84° |
| 2026-05-09 06:58 | 46.19229 | 16.26861 | 37088 ft | 478 kts | 84° |
| 2026-05-09 06:58 | 46.19907 | 16.36433 | 37110 ft | 482 kts | 84° |
| 2026-05-09 06:59 | 46.20589 | 16.46084 | 37171 ft | 484 kts | 84° |
| 2026-05-09 06:59 | 46.21272 | 16.55743 | 37166 ft | 483 kts | 85° |
| 2026-05-09 07:00 | 46.21927 | 16.65360 | 37167 ft | 480 kts | 85° |
| 2026-05-09 07:00 | 46.22575 | 16.74921 | 37134 ft | 477 kts | 85° |
| 2026-05-09 07:01 | 46.23220 | 16.84365 | 37092 ft | 475 kts | 85° |
| 2026-05-09 07:01 | 46.23843 | 16.93855 | 37068 ft | 474 kts | 85° |
| 2026-05-09 07:02 | 46.24791 | 17.03303 | 37074 ft | 478 kts | 81° |
| 2026-05-09 07:02 | 46.25959 | 17.12786 | 37122 ft | 481 kts | 81° |
| 2026-05-09 07:03 | 46.27101 | 17.22328 | 37152 ft | 481 kts | 82° |
| 2026-05-09 07:03 | 46.28190 | 17.31844 | 37156 ft | 478 kts | 82° |
| 2026-05-09 07:04 | 46.29281 | 17.41300 | 37146 ft | 475 kts | 82° |
| 2026-05-09 07:04 | 46.30356 | 17.50683 | 37105 ft | 472 kts | 82° |
| 2026-05-09 07:05 | 46.31420 | 17.60025 | 37062 ft | 470 kts | 82° |
| 2026-05-09 07:05 | 46.32473 | 17.69342 | 37058 ft | 470 kts | 82° |
| 2026-05-09 07:06 | 46.33523 | 17.78710 | 37065 ft | 474 kts | 82° |
| 2026-05-09 07:06 | 46.34399 | 17.86556 | 37105 ft | 477 kts | 82° |
| 2026-05-09 07:07 | 46.35452 | 17.96046 | 37138 ft | 478 kts | 82° |
| 2026-05-09 07:07 | 46.36494 | 18.05530 | 37140 ft | 476 kts | 82° |
| 2026-05-09 07:08 | 46.37516 | 18.14972 | 37127 ft | 474 kts | 82° |
| 2026-05-09 07:08 | 46.38536 | 18.24388 | 37083 ft | 472 kts | 83° |
| 2026-05-09 07:09 | 46.39536 | 18.33772 | 37045 ft | 471 kts | 83° |
| 2026-05-09 07:09 | 46.40532 | 18.43145 | 37045 ft | 471 kts | 83° |
| 2026-05-09 07:10 | 46.41530 | 18.52548 | 37052 ft | 474 kts | 83° |
| 2026-05-09 07:10 | 46.42522 | 18.62029 | 37107 ft | 477 kts | 83° |
| 2026-05-09 07:11 | 46.43507 | 18.71564 | 37134 ft | 478 kts | 83° |
| 2026-05-09 07:11 | 46.44489 | 18.81065 | 37132 ft | 476 kts | 83° |
| 2026-05-09 07:12 | 46.45454 | 18.90532 | 37129 ft | 473 kts | 83° |
| 2026-05-09 07:12 | 46.46389 | 18.99879 | 37085 ft | 471 kts | 83° |
| 2026-05-09 07:13 | 46.47333 | 19.09251 | 37043 ft | 469 kts | 83° |
| 2026-05-09 07:13 | 46.48269 | 19.18604 | 37042 ft | 469 kts | 84° |
| 2026-05-09 07:14 | 46.49186 | 19.28004 | 37052 ft | 473 kts | 84° |
| 2026-05-09 07:14 | 46.50113 | 19.37487 | 37108 ft | 476 kts | 83° |
| 2026-05-09 07:15 | 46.51038 | 19.47002 | 37129 ft | 476 kts | 84° |
| 2026-05-09 07:15 | 46.51949 | 19.56492 | 37133 ft | 473 kts | 84° |
| 2026-05-09 07:16 | 46.52855 | 19.65918 | 37124 ft | 470 kts | 84° |
| 2026-05-09 07:16 | 46.53728 | 19.75300 | 37077 ft | 467 kts | 84° |
| 2026-05-09 07:17 | 46.54601 | 19.84631 | 37038 ft | 466 kts | 84° |
| 2026-05-09 07:17 | 46.55464 | 19.93956 | 37034 ft | 466 kts | 84° |
| 2026-05-09 07:18 | 46.56323 | 20.03304 | 37039 ft | 470 kts | 84° |
| 2026-05-09 07:18 | 46.57187 | 20.12751 | 37088 ft | 473 kts | 84° |
| 2026-05-09 07:19 | 46.58040 | 20.22262 | 37124 ft | 474 kts | 84° |
| 2026-05-09 07:19 | 46.58883 | 20.31757 | 37120 ft | 473 kts | 84° |
| 2026-05-09 07:20 | 46.59717 | 20.41210 | 37105 ft | 470 kts | 84° |
| 2026-05-09 07:20 | 46.60546 | 20.50626 | 37060 ft | 469 kts | 84° |
| 2026-05-09 07:21 | 46.61356 | 20.59959 | 37028 ft | 467 kts | 85° |
| 2026-05-09 07:21 | 46.62156 | 20.69334 | 37031 ft | 467 kts | 85° |
| 2026-05-09 07:22 | 46.62957 | 20.78740 | 37035 ft | 471 kts | 85° |
| 2026-05-09 07:22 | 46.63751 | 20.88223 | 37082 ft | 474 kts | 85° |
| 2026-05-09 07:23 | 46.64546 | 20.97767 | 37104 ft | 475 kts | 85° |
| 2026-05-09 07:23 | 46.65333 | 21.07305 | 37108 ft | 473 kts | 85° |
| 2026-05-09 07:24 | 46.66111 | 21.16789 | 37100 ft | 471 kts | 85° |
| 2026-05-09 07:24 | 46.66873 | 21.26231 | 37059 ft | 469 kts | 85° |
| 2026-05-09 07:25 | 46.67626 | 21.35653 | 37017 ft | 467 kts | 85° |
| 2026-05-09 07:25 | 46.68367 | 21.45050 | 37011 ft | 467 kts | 85° |
| 2026-05-09 07:26 | 46.69049 | 21.54476 | 37015 ft | 469 kts | 86° |
| 2026-05-09 07:26 | 46.69656 | 21.63987 | 37031 ft | 474 kts | 86° |
| 2026-05-09 07:27 | 46.70254 | 21.73559 | 37094 ft | 475 kts | 86° |
| 2026-05-09 07:27 | 46.70857 | 21.83128 | 37105 ft | 473 kts | 86° |
| 2026-05-09 07:28 | 46.71447 | 21.92650 | 37100 ft | 470 kts | 86° |
| 2026-05-09 07:28 | 46.72016 | 22.02127 | 37072 ft | 468 kts | 86° |
| 2026-05-09 07:29 | 46.72586 | 22.11546 | 37027 ft | 466 kts | 86° |
| 2026-05-09 07:29 | 46.73149 | 22.20894 | 37015 ft | 466 kts | 86° |
| 2026-05-09 07:30 | 46.73699 | 22.30290 | 37013 ft | 466 kts | 87° |
| 2026-05-09 07:30 | 46.74237 | 22.39754 | 37029 ft | 471 kts | 87° |
| 2026-05-09 07:31 | 46.74784 | 22.49303 | 37091 ft | 475 kts | 87° |
| 2026-05-09 07:31 | 46.75326 | 22.58905 | 37108 ft | 474 kts | 87° |
| 2026-05-09 07:32 | 46.75844 | 22.68470 | 37103 ft | 472 kts | 87° |
| 2026-05-09 07:32 | 46.76365 | 22.77996 | 37090 ft | 470 kts | 87° |
| 2026-05-09 07:33 | 46.77124 | 22.92211 | 37025 ft | 468 kts | 87° |
| 2026-05-09 07:34 | 46.77607 | 23.01673 | 37015 ft | 468 kts | 87° |
| 2026-05-09 07:34 | 46.78095 | 23.11137 | 37011 ft | 468 kts | 87° |
| 2026-05-09 07:35 | 46.78584 | 23.20653 | 37018 ft | 473 kts | 87° |
| 2026-05-09 07:35 | 46.79053 | 23.30260 | 37077 ft | 476 kts | 87° |
| 2026-05-09 07:36 | 46.79521 | 23.39884 | 37097 ft | 475 kts | 87° |
| 2026-05-09 07:36 | 46.79981 | 23.49412 | 37107 ft | 472 kts | 87° |
| 2026-05-09 07:37 | 46.80434 | 23.58938 | 37081 ft | 469 kts | 87° |
| 2026-05-09 07:37 | 46.80871 | 23.68421 | 37038 ft | 467 kts | 87° |
| 2026-05-09 07:38 | 46.81304 | 23.77865 | 37010 ft | 466 kts | 87° |
| 2026-05-09 07:38 | 46.81727 | 23.87320 | 37014 ft | 467 kts | 88° |
| 2026-05-09 07:39 | 46.82136 | 23.96784 | 37014 ft | 468 kts | 88° |
| 2026-05-09 07:39 | 46.82548 | 24.06304 | 37017 ft | 473 kts | 88° |
| 2026-05-09 07:40 | 46.82952 | 24.15921 | 37069 ft | 475 kts | 88° |
| 2026-05-09 07:40 | 46.83344 | 24.25549 | 37101 ft | 475 kts | 88° |
| 2026-05-09 07:41 | 46.83734 | 24.35156 | 37101 ft | 472 kts | 88° |
| 2026-05-09 07:41 | 46.84113 | 24.44700 | 37096 ft | 469 kts | 88° |
| 2026-05-09 07:42 | 46.84482 | 24.54188 | 37059 ft | 467 kts | 88° |
| 2026-05-09 07:42 | 46.84840 | 24.63653 | 37018 ft | 466 kts | 88° |
| 2026-05-09 07:43 | 46.85184 | 24.73030 | 37018 ft | 466 kts | 88° |
| 2026-05-09 07:43 | 46.85528 | 24.82490 | 37024 ft | 467 kts | 88° |
| 2026-05-09 07:44 | 46.85864 | 24.91982 | 37027 ft | 471 kts | 88° |
| 2026-05-09 07:44 | 46.86198 | 25.01585 | 37063 ft | 475 kts | 88° |
| 2026-05-09 07:45 | 46.86526 | 25.11227 | 37120 ft | 475 kts | 88° |
| 2026-05-09 07:45 | 46.86839 | 25.20853 | 37120 ft | 473 kts | 88° |
| 2026-05-09 07:46 | 46.87147 | 25.30413 | 37118 ft | 470 kts | 89° |
| 2026-05-09 07:46 | 46.87444 | 25.39921 | 37089 ft | 467 kts | 89° |
| 2026-05-09 07:47 | 46.87733 | 25.49364 | 37040 ft | 463 kts | 89° |
| 2026-05-09 07:47 | 46.88010 | 25.58756 | 37076 ft | 464 kts | 89° |
| 2026-05-09 07:48 | 46.88283 | 25.68241 | 37095 ft | 470 kts | 89° |
| 2026-05-09 07:48 | 46.88549 | 25.77806 | 37095 ft | 471 kts | 89° |
| 2026-05-09 07:49 | 46.88808 | 25.87373 | 37097 ft | 471 kts | 89° |
| 2026-05-09 07:49 | 46.89059 | 25.96904 | 36777 ft | 466 kts | 89° |
| 2026-05-09 07:49 | 46.89177 | 26.01574 | 36304 ft | 466 kts | 89° |
| 2026-05-09 07:50 | 46.89293 | 26.06305 | 35739 ft | 466 kts | 89° |
| 2026-05-09 07:50 | 46.89409 | 26.11045 | 35118 ft | 467 kts | 89° |
| 2026-05-09 07:50 | 46.89527 | 26.15805 | 34434 ft | 470 kts | 89° |
| 2026-05-09 07:50 | 46.89646 | 26.20655 | 33808 ft | 471 kts | 89° |
| 2026-05-09 07:51 | 46.89757 | 26.25376 | 33236 ft | 471 kts | 89° |
| 2026-05-09 07:51 | 46.89866 | 26.30154 | 32646 ft | 471 kts | 89° |
| 2026-05-09 07:51 | 46.89975 | 26.34944 | 32055 ft | 470 kts | 89° |
| 2026-05-09 07:51 | 46.90082 | 26.39721 | 31458 ft | 470 kts | 90° |
| 2026-05-09 07:52 | 46.90186 | 26.44489 | 30874 ft | 469 kts | 90° |
| 2026-05-09 07:52 | 46.90289 | 26.49240 | 30309 ft | 467 kts | 90° |
| 2026-05-09 07:52 | 46.90390 | 26.53974 | 29694 ft | 464 kts | 90° |
| 2026-05-09 07:52 | 46.90487 | 26.58666 | 29101 ft | 460 kts | 90° |
| 2026-05-09 07:53 | 46.90578 | 26.63327 | 28514 ft | 457 kts | 90° |
| 2026-05-09 07:53 | 46.90667 | 26.67940 | 27948 ft | 453 kts | 90° |
| 2026-05-09 07:53 | 46.90755 | 26.72528 | 27372 ft | 449 kts | 90° |
| 2026-05-09 07:53 | 46.90843 | 26.77069 | 26776 ft | 446 kts | 90° |
| 2026-05-09 07:54 | 46.90928 | 26.81587 | 26211 ft | 442 kts | 90° |
| 2026-05-09 07:54 | 46.91010 | 26.86057 | 25656 ft | 438 kts | 90° |
| 2026-05-09 07:54 | 46.91092 | 26.90490 | 25097 ft | 434 kts | 90° |
| 2026-05-09 07:54 | 46.91169 | 26.94889 | 24550 ft | 431 kts | 90° |
| 2026-05-09 07:55 | 46.91243 | 26.99247 | 24001 ft | 427 kts | 90° |
| 2026-05-09 07:55 | 46.91314 | 27.03569 | 23464 ft | 423 kts | 90° |
| 2026-05-09 07:55 | 46.91383 | 27.07849 | 22907 ft | 420 kts | 90° |
| 2026-05-09 07:55 | 46.91450 | 27.12102 | 22343 ft | 417 kts | 90° |
| 2026-05-09 07:56 | 46.91517 | 27.16307 | 21867 ft | 411 kts | 90° |
| 2026-05-09 07:56 | 46.91581 | 27.20473 | 21277 ft | 409 kts | 90° |
| 2026-05-09 07:56 | 46.91642 | 27.24612 | 20709 ft | 406 kts | 90° |
| 2026-05-09 07:56 | 46.91701 | 27.28727 | 20154 ft | 403 kts | 90° |
| 2026-05-09 07:57 | 46.91757 | 27.32806 | 19593 ft | 400 kts | 90° |
| 2026-05-09 07:57 | 46.91813 | 27.36853 | 19094 ft | 395 kts | 90° |
| 2026-05-09 07:57 | 46.91849 | 27.39504 | 18738 ft | 393 kts | 90° |
| 2026-05-09 07:57 | 46.91903 | 27.43477 | 18189 ft | 390 kts | 90° |
| 2026-05-09 07:58 | 46.91954 | 27.47424 | 17665 ft | 386 kts | 90° |
| 2026-05-09 07:58 | 46.92003 | 27.51332 | 17131 ft | 382 kts | 90° |
| 2026-05-09 07:58 | 46.92050 | 27.55200 | 16597 ft | 379 kts | 90° |
| 2026-05-09 07:58 | 46.92094 | 27.59034 | 16071 ft | 375 kts | 90° |
| 2026-05-09 07:59 | 46.92138 | 27.62833 | 15574 ft | 371 kts | 90° |
| 2026-05-09 07:59 | 46.92179 | 27.66580 | 15078 ft | 367 kts | 90° |
| 2026-05-09 07:59 | 46.92217 | 27.70293 | 14555 ft | 363 kts | 90° |
| 2026-05-09 07:59 | 46.92254 | 27.73966 | 14047 ft | 360 kts | 90° |
| 2026-05-09 08:00 | 46.92293 | 27.77603 | 13567 ft | 355 kts | 90° |
| 2026-05-09 08:00 | 46.92329 | 27.81196 | 13091 ft | 351 kts | 90° |
| 2026-05-09 08:00 | 46.92364 | 27.84744 | 12619 ft | 347 kts | 90° |
| 2026-05-09 08:00 | 46.92397 | 27.88237 | 12118 ft | 344 kts | 90° |
| 2026-05-09 08:01 | 46.92428 | 27.91727 | 11610 ft | 341 kts | 90° |
| 2026-05-09 08:01 | 46.92458 | 27.95183 | 11088 ft | 339 kts | 90° |
| 2026-05-09 08:01 | 46.92486 | 27.98614 | 10590 ft | 335 kts | 90° |
| 2026-05-09 08:01 | 46.92513 | 28.02004 | 10184 ft | 330 kts | 90° |
| 2026-05-09 08:02 | 46.92539 | 28.05293 | 10015 ft | 317 kts | 90° |
| 2026-05-09 08:02 | 46.92564 | 28.08447 | 9877 ft | 304 kts | 90° |
| 2026-05-09 08:02 | 46.92577 | 28.11474 | 9745 ft | 291 kts | 91° |
| 2026-05-09 08:02 | 46.92563 | 28.14404 | 9466 ft | 286 kts | 91° |
| 2026-05-09 08:03 | 46.92535 | 28.17293 | 9105 ft | 283 kts | 91° |
| 2026-05-09 08:03 | 46.92506 | 28.20167 | 8733 ft | 281 kts | 91° |
| 2026-05-09 08:03 | 46.92481 | 28.23019 | 8359 ft | 279 kts | 91° |
| 2026-05-09 08:03 | 46.92459 | 28.25844 | 7894 ft | 277 kts | 91° |
| 2026-05-09 08:04 | 46.92437 | 28.28652 | 7410 ft | 275 kts | 91° |
| 2026-05-09 08:04 | 46.92416 | 28.31439 | 6924 ft | 273 kts | 91° |
| 2026-05-09 08:04 | 46.92402 | 28.34196 | 6445 ft | 270 kts | 90° |
| 2026-05-09 08:04 | 46.92382 | 28.36938 | 5966 ft | 268 kts | 91° |
| 2026-05-09 08:05 | 46.92351 | 28.39654 | 5489 ft | 266 kts | 91° |
| 2026-05-09 08:05 | 46.92321 | 28.42349 | 5011 ft | 264 kts | 91° |
| 2026-05-09 08:05 | 46.92294 | 28.44984 | 4542 ft | 262 kts | 91° |
| 2026-05-09 08:05 | 46.92269 | 28.47630 | 4179 ft | 257 kts | 91° |
| 2026-05-09 08:06 | 46.92242 | 28.50186 | 3996 ft | 245 kts | 91° |
| 2026-05-09 08:06 | 46.92215 | 28.52643 | 3800 ft | 237 kts | 91° |
| 2026-05-09 08:06 | 46.92190 | 28.54992 | 3693 ft | 225 kts | 91° |
| 2026-05-09 08:06 | 46.92177 | 28.57208 | 3577 ft | 211 kts | 90° |
| 2026-05-09 08:07 | 46.92162 | 28.59259 | 3538 ft | 193 kts | 91° |
| 2026-05-09 08:07 | 46.92125 | 28.61202 | 3488 ft | 189 kts | 94° |
| 2026-05-09 08:07 | 46.91898 | 28.63086 | 3486 ft | 189 kts | 97° |
| 2026-05-09 08:07 | 46.91954 | 28.65009 | 3510 ft | 189 kts | 85° |
| 2026-05-09 08:08 | 46.92061 | 28.66934 | 3418 ft | 188 kts | 87° |
| 2026-05-09 08:08 | 46.92132 | 28.68781 | 3328 ft | 177 kts | 88° |
| 2026-05-09 08:08 | 46.92186 | 28.70585 | 3086 ft | 174 kts | 88° |
| 2026-05-09 08:08 | 46.92225 | 28.72312 | 2851 ft | 166 kts | 89° |
| 2026-05-09 08:09 | 46.92268 | 28.73966 | 2598 ft | 158 kts | 88° |
| 2026-05-09 08:09 | 46.92312 | 28.75523 | 2349 ft | 148 kts | 88° |
| 2026-05-09 08:09 | 46.92350 | 28.76995 | 2190 ft | 144 kts | 88° |
| 2026-05-09 08:09 | 46.92389 | 28.78453 | 2003 ft | 143 kts | 88° |
| 2026-05-09 08:10 | 46.92425 | 28.79902 | 1816 ft | 141 kts | 88° |
| 2026-05-09 08:10 | 46.92462 | 28.81333 | 1628 ft | 141 kts | 88° |
| 2026-05-09 08:10 | 46.92501 | 28.82759 | 1442 ft | 140 kts | 88° |
| 2026-05-09 08:10 | 46.92538 | 28.84180 | 1256 ft | 140 kts | 88° |
| 2026-05-09 08:11 | 46.92575 | 28.85598 | 1070 ft | 139 kts | 88° |
| 2026-05-09 08:11 | 46.92614 | 28.87011 | 885 ft | 139 kts | 88° |
| 2026-05-09 08:11 | 46.92654 | 28.88420 | 694 ft | 138 kts | 87° |
| 2026-05-09 08:11 | 46.92699 | 28.89823 | 491 ft | 138 kts | 89° |
| 2026-05-09 08:12 | 46.92761 | 28.92411 | 343 ft | 94 kts | 88° |
| 2026-05-09 08:12 | 46.92778 | 28.93102 | 343 ft | 43 kts | 88° |
| 2026-05-09 08:12 | 46.92785 | 28.93358 | 343 ft | 20 kts | 81° |
| 2026-05-09 08:13 | 46.92866 | 28.93415 | 343 ft | 15 kts | 359° |
| 2026-05-09 08:13 | 46.92980 | 28.93414 | 343 ft | 18 kts | 2° |
| 2026-05-09 08:13 | 46.93111 | 28.93430 | 343 ft | 19 kts | 7° |
| 2026-05-09 08:13 | 46.93188 | 28.93447 | 343 ft | 10 kts | 7° |
| 2026-05-09 08:14 | 46.93272 | 28.93461 | 343 ft | 14 kts | 7° |
| 2026-05-09 08:14 | 46.93315 | 28.93504 | 343 ft | 8 kts | 80° |
| 2026-05-09 08:14 | 46.93310 | 28.93591 | 343 ft | 10 kts | 96° |
| 2026-05-09 08:14 | 46.93320 | 28.93653 | 343 ft | 6 kts | 38° |
| 2026-05-09 08:15 | 46.93337 | 28.93663 | 343 ft | 3 kts | 8° |
| 2026-05-09 08:15 | 46.93358 | 28.93666 | 343 ft | 2 kts | 6° |
| 2026-05-09 08:15 | 46.93365 | 28.93667 | 343 ft | 0 kts | 6° |